createdAt,value
2017-08-18T00:02:07.620Z,96.40
2017-08-18T00:04:35.400Z,96.50
2017-08-18T00:07:03.122Z,96.70
2017-08-18T00:09:31.673Z,97.00
2017-08-18T00:11:59.536Z,97.00
2017-08-18T00:14:27.397Z,97.10
2017-08-18T00:16:55.179Z,97.60
2017-08-18T00:19:22.906Z,97.50
2017-08-18T00:21:50.642Z,97.70
2017-08-18T00:24:18.403Z,97.80
2017-08-18T00:26:46.134Z,97.90
2017-08-18T00:29:14.749Z,98.20
2017-08-18T00:31:42.549Z,98.20
2017-08-18T00:34:10.412Z,98.20
2017-08-18T00:36:38.173Z,98.40
2017-08-18T00:39:05.903Z,98.40
2017-08-18T00:41:33.708Z,98.50
2017-08-18T00:44:01.442Z,98.50
2017-08-18T00:46:29.163Z,98.40
2017-08-18T00:48:56.952Z,98.20
2017-08-18T00:51:24.742Z,98.20
2017-08-18T00:53:52.606Z,98.20
2017-08-18T00:56:20.367Z,98.20
2017-08-18T00:58:48.091Z,98.50
2017-08-18T01:01:15.863Z,98.40
2017-08-18T01:03:43.594Z,98.60
2017-08-18T01:06:12.232Z,98.60
2017-08-18T01:08:39.958Z,98.60
2017-08-18T01:11:07.758Z,98.40
2017-08-18T01:13:35.620Z,98.30
2017-08-18T01:16:03.483Z,98.20
2017-08-18T01:18:31.347Z,98.10
2017-08-18T01:20:59.073Z,98.20
2017-08-18T01:23:26.812Z,98.00
2017-08-18T01:25:54.574Z,97.90
2017-08-18T01:28:22.393Z,97.70
2017-08-18T01:30:50.426Z,97.60
2017-08-18T01:33:18.146Z,96.90
2017-08-18T01:35:46.643Z,96.20
2017-08-18T01:38:14.399Z,96.20
2017-08-18T01:40:42.903Z,95.20
2017-08-18T01:43:10.685Z,95.20
2017-08-18T01:45:38.465Z,94.60
2017-08-18T01:48:06.226Z,94.70
2017-08-18T01:50:33.977Z,94.40
2017-08-18T01:53:01.698Z,94.40
2017-08-18T01:55:29.492Z,94.80
2017-08-18T01:57:57.214Z,94.80
2017-08-18T02:00:25.033Z,94.60
2017-08-18T02:02:53.005Z,95.60
2017-08-18T02:05:20.728Z,96.70
2017-08-18T02:07:48.532Z,97.20
2017-08-18T02:10:16.268Z,98.30
2017-08-18T02:12:44.149Z,98.00
2017-08-18T02:15:12.012Z,99.10
2017-08-18T02:17:39.740Z,99.00
2017-08-18T02:20:07.528Z,98.80
2017-08-18T02:22:35.295Z,99.40
2017-08-18T02:25:03.021Z,99.20
2017-08-18T02:27:30.778Z,99.40
2017-08-18T02:29:59.266Z,98.90
2017-08-18T02:32:27.059Z,98.90
2017-08-18T02:34:54.792Z,99.40
2017-08-18T02:37:22.585Z,99.70
2017-08-18T02:39:50.445Z,99.90
2017-08-18T02:42:18.312Z,99.50
2017-08-18T02:44:46.090Z,99.60
2017-08-18T02:47:13.816Z,99.20
2017-08-18T02:49:41.543Z,99.90
2017-08-18T02:52:09.302Z,99.90
2017-08-18T02:54:37.030Z,99.70
2017-08-18T02:57:04.882Z,99.70
2017-08-18T02:59:32.702Z,99.80
2017-08-18T03:02:00.509Z,99.90
2017-08-18T03:04:28.270Z,99.90
2017-08-18T03:06:56.180Z,99.90
2017-08-18T03:09:24.095Z,99.90
2017-08-18T03:11:51.818Z,99.90
2017-08-18T03:14:19.552Z,99.90
2017-08-18T03:16:48.074Z,99.90
2017-08-18T03:19:15.811Z,99.90
2017-08-18T03:21:43.756Z,99.90
2017-08-18T03:24:12.251Z,99.90
2017-08-18T03:26:40.067Z,99.90
2017-08-18T03:29:07.928Z,99.90
2017-08-18T03:31:35.792Z,99.90
2017-08-18T03:34:03.576Z,99.90
2017-08-18T03:36:32.198Z,99.90
2017-08-18T03:38:59.918Z,99.90
2017-08-18T03:41:27.764Z,99.90
2017-08-18T03:43:55.494Z,99.90
2017-08-18T03:46:23.384Z,99.90
2017-08-18T03:48:51.248Z,99.90
2017-08-18T03:51:19.010Z,99.90
2017-08-18T03:53:46.872Z,99.90
2017-08-18T03:56:14.702Z,99.90
2017-08-18T03:58:42.481Z,99.90
2017-08-18T04:01:10.261Z,99.90
2017-08-18T04:03:38.022Z,99.90
2017-08-18T04:06:05.787Z,99.90
2017-08-18T04:08:33.530Z,99.90
2017-08-18T04:11:01.328Z,99.90
2017-08-18T04:13:29.065Z,99.90
2017-08-18T04:15:56.828Z,99.90
2017-08-18T04:18:24.670Z,99.90
2017-08-18T04:20:52.396Z,99.90
2017-08-18T04:23:20.187Z,99.90
2017-08-18T04:25:47.913Z,99.90
2017-08-18T04:28:16.404Z,99.90
2017-08-18T04:30:44.178Z,99.90
2017-08-18T04:33:11.978Z,99.90
2017-08-18T04:35:39.844Z,99.90
2017-08-18T04:38:07.574Z,99.90
2017-08-18T04:40:35.368Z,99.90
2017-08-18T04:43:03.147Z,99.90
2017-08-18T04:45:30.870Z,99.80
2017-08-18T04:47:58.718Z,98.90
2017-08-18T04:50:26.443Z,98.90
2017-08-18T04:52:54.931Z,98.40
2017-08-18T04:55:23.455Z,98.90
2017-08-18T04:57:51.182Z,98.80
2017-08-18T05:00:18.967Z,98.00
2017-08-18T05:02:46.695Z,96.70
2017-08-18T05:05:15.183Z,95.70
2017-08-18T05:07:42.942Z,95.70
2017-08-18T05:10:10.670Z,95.10
2017-08-18T05:12:38.891Z,93.90
2017-08-18T05:15:06.688Z,94.60
2017-08-18T05:17:34.556Z,94.00
2017-08-18T05:20:02.418Z,93.10
2017-08-18T05:22:30.142Z,91.40
2017-08-18T05:24:57.986Z,90.10
2017-08-18T05:27:25.712Z,84.10
2017-08-18T05:29:53.442Z,81.00
2017-08-18T05:32:21.327Z,79.70
2017-08-18T05:34:49.050Z,74.70
2017-08-18T05:37:16.882Z,70.90
2017-08-18T05:39:45.367Z,69.20
2017-08-18T05:42:13.854Z,65.70
2017-08-18T05:44:41.611Z,65.70
2017-08-18T05:47:09.346Z,64.10
2017-08-18T05:49:37.192Z,57.10
2017-08-18T05:52:04.919Z,48.70
2017-08-18T05:54:32.642Z,45.90
2017-08-18T05:57:01.500Z,46.40
2017-08-18T05:59:29.230Z,46.40
2017-08-18T06:01:57.031Z,47.00
2017-08-18T06:04:24.790Z,44.30
2017-08-18T06:06:52.534Z,43.60
2017-08-18T06:09:20.322Z,43.50
2017-08-18T06:11:48.148Z,40.50
2017-08-18T06:14:15.963Z,34.70
2017-08-18T06:16:44.591Z,29.70
2017-08-18T06:19:12.322Z,27.00
2017-08-18T06:21:40.144Z,25.00
2017-08-18T06:24:07.967Z,23.90
2017-08-18T06:26:35.867Z,24.50
2017-08-18T06:29:03.731Z,21.90
2017-08-18T06:31:31.595Z,21.80
2017-08-18T06:33:59.458Z,22.30
2017-08-18T06:36:27.322Z,22.50
2017-08-18T06:38:55.187Z,22.30
2017-08-18T06:41:23.167Z,21.70
2017-08-18T06:43:51.037Z,22.80
2017-08-18T06:46:19.699Z,23.80
2017-08-18T06:48:47.566Z,23.70
2017-08-18T06:51:15.939Z,23.00
2017-08-18T06:53:44.467Z,22.50
2017-08-18T06:56:12.235Z,22.40
2017-08-18T06:58:40.062Z,20.70
2017-08-18T07:01:08.601Z,20.60
2017-08-18T07:03:36.459Z,20.50
2017-08-18T07:06:04.255Z,19.80
2017-08-18T07:08:31.999Z,18.90
2017-08-18T07:10:59.766Z,19.50
2017-08-18T07:13:27.494Z,18.70
2017-08-18T07:15:55.274Z,18.90
2017-08-18T07:18:22.994Z,18.00
2017-08-18T07:20:50.716Z,17.80
2017-08-18T07:23:18.501Z,17.90
2017-08-18T07:25:46.894Z,17.00
2017-08-18T07:28:15.431Z,16.50
2017-08-18T07:30:43.151Z,16.50
2017-08-18T07:33:10.915Z,16.60
2017-08-18T07:35:38.684Z,15.30
2017-08-18T07:38:06.406Z,14.90
2017-08-18T07:40:34.987Z,13.30
2017-08-18T07:43:13.861Z,14.00
2017-08-18T07:45:41.640Z,13.40
2017-08-18T07:48:09.367Z,14.70
2017-08-18T07:50:37.114Z,14.00
2017-08-18T07:53:04.862Z,12.20
2017-08-18T07:55:33.351Z,11.00
2017-08-18T07:58:01.150Z,11.00
2017-08-18T08:00:28.870Z,11.30
2017-08-18T08:02:57.123Z,12.40
2017-08-18T08:05:25.639Z,11.50
2017-08-18T08:07:53.354Z,11.60
2017-08-18T08:10:21.126Z,11.90
2017-08-18T08:12:49.601Z,11.30
2017-08-18T08:15:18.086Z,10.90
2017-08-18T08:17:46.589Z,12.10
2017-08-18T08:20:14.316Z,12.10
2017-08-18T08:22:42.859Z,11.40
2017-08-18T08:25:10.578Z,11.00
2017-08-18T08:27:38.305Z,12.40
2017-08-18T08:30:06.066Z,11.50
2017-08-18T08:32:33.782Z,11.70
2017-08-18T08:35:01.560Z,11.30
2017-08-18T08:37:29.279Z,11.10
2017-08-18T08:39:57.007Z,13.00
2017-08-18T08:42:24.759Z,12.00
2017-08-18T08:44:52.483Z,11.20
2017-08-18T08:47:20.386Z,11.50
2017-08-18T08:49:48.247Z,11.40
2017-08-18T08:52:16.110Z,12.10
2017-08-18T08:54:43.974Z,11.70
2017-08-18T08:57:11.838Z,10.60
2017-08-18T08:59:39.703Z,10.90
2017-08-18T09:02:07.566Z,10.60
2017-08-18T09:04:35.432Z,10.20
2017-08-18T09:07:05.435Z,10.00
2017-08-18T09:09:44.002Z,10.10
2017-08-18T09:12:20.095Z,10.80
2017-08-18T09:14:47.876Z,10.70
2017-08-18T09:17:15.741Z,11.30
2017-08-18T09:19:43.605Z,10.90
2017-08-18T09:22:11.469Z,11.30
2017-08-18T09:24:39.335Z,11.70
2017-08-18T09:27:07.093Z,13.20
2017-08-18T09:29:34.958Z,12.80
2017-08-18T09:32:02.823Z,14.80
2017-08-18T09:34:30.686Z,17.00
2017-08-18T09:36:58.509Z,19.60
2017-08-18T09:39:26.311Z,21.70
2017-08-18T09:41:54.176Z,21.20
2017-08-18T09:44:21.907Z,22.00
2017-08-18T09:46:49.633Z,23.80
2017-08-18T09:49:29.864Z,24.90
2017-08-18T09:52:09.521Z,24.90
2017-08-18T09:54:49.294Z,24.30
2017-08-18T09:57:28.768Z,24.20
2017-08-18T09:59:56.633Z,25.80
2017-08-18T10:02:24.463Z,26.30
2017-08-18T10:04:52.360Z,27.20
2017-08-18T10:07:20.327Z,27.20
2017-08-18T10:09:48.047Z,28.10
2017-08-18T10:12:15.807Z,28.30
2017-08-18T10:14:44.447Z,28.10
2017-08-18T10:17:13.895Z,28.30
2017-08-18T10:19:41.626Z,27.10
2017-08-18T10:22:09.358Z,28.60
2017-08-18T10:24:37.118Z,28.00
2017-08-18T10:27:04.878Z,27.40
2017-08-18T10:29:32.742Z,28.20
2017-08-18T10:32:00.604Z,27.10
2017-08-18T10:34:28.330Z,28.10
2017-08-18T10:36:56.229Z,28.10
2017-08-18T10:39:24.092Z,27.80
2017-08-18T10:41:51.960Z,28.10
2017-08-18T10:44:19.821Z,27.80
2017-08-18T10:46:47.543Z,28.10
2017-08-18T10:49:15.448Z,27.20
2017-08-18T10:51:43.312Z,28.40
2017-08-18T10:54:11.090Z,27.90
2017-08-18T10:56:38.815Z,28.00
2017-08-18T10:59:06.535Z,29.20
2017-08-18T11:01:34.295Z,27.40
2017-08-18T11:04:02.031Z,27.00
2017-08-18T11:06:29.871Z,26.70
2017-08-18T11:08:57.744Z,27.20
2017-08-18T11:11:25.612Z,28.00
2017-08-18T11:13:53.473Z,28.50
2017-08-18T11:16:21.334Z,29.20
2017-08-18T11:18:49.197Z,28.20
2017-08-18T11:21:16.915Z,27.50
2017-08-18T11:23:44.641Z,27.10
2017-08-18T11:26:13.167Z,28.20
2017-08-18T11:28:40.888Z,28.20
2017-08-18T11:31:09.542Z,28.10
2017-08-18T11:33:37.405Z,28.00
2017-08-18T11:36:05.268Z,26.90
2017-08-18T11:38:33.134Z,27.50
2017-08-18T11:41:00.996Z,28.20
2017-08-18T11:43:28.774Z,27.50
2017-08-18T11:45:56.504Z,28.80
2017-08-18T11:48:24.223Z,27.40
2017-08-18T11:50:51.986Z,27.60
2017-08-18T11:53:19.804Z,28.50
2017-08-18T11:55:47.670Z,28.20
2017-08-18T11:58:15.532Z,27.70
2017-08-18T12:00:43.396Z,27.70
2017-08-18T12:03:11.259Z,27.80
2017-08-18T12:05:39.128Z,27.50
2017-08-18T12:08:06.989Z,28.10
2017-08-18T12:10:34.869Z,27.10
2017-08-18T12:13:03.435Z,27.20
2017-08-18T12:15:31.296Z,27.50
2017-08-18T12:17:59.019Z,27.80
2017-08-18T12:20:26.820Z,28.60
2017-08-18T12:22:54.548Z,28.20
2017-08-18T12:25:22.340Z,27.00
2017-08-18T12:27:50.207Z,26.90
2017-08-18T12:30:18.070Z,28.50
2017-08-18T12:32:45.864Z,28.00
2017-08-18T12:35:13.583Z,28.00
2017-08-18T12:37:41.308Z,28.00
2017-08-18T12:40:09.114Z,27.20
2017-08-18T12:42:36.978Z,26.70
2017-08-18T12:45:04.840Z,28.00
2017-08-18T12:47:32.573Z,27.80
2017-08-18T12:50:00.330Z,27.80
2017-08-18T12:52:28.231Z,27.40
2017-08-18T12:54:55.950Z,26.70
2017-08-18T12:57:23.753Z,26.40
2017-08-18T12:59:51.615Z,26.20
2017-08-18T13:02:19.480Z,27.00
2017-08-18T13:04:47.239Z,26.30
2017-08-18T13:07:14.966Z,27.10
2017-08-18T13:09:42.867Z,26.70
2017-08-18T13:12:10.630Z,26.50
2017-08-18T13:14:38.455Z,26.00
2017-08-18T13:17:06.332Z,26.00
2017-08-18T13:19:34.117Z,27.10
2017-08-18T13:22:01.900Z,25.70
2017-08-18T13:24:30.393Z,26.10
2017-08-18T13:26:58.940Z,25.70
2017-08-18T13:29:26.803Z,25.70
2017-08-18T13:31:54.668Z,25.30
2017-08-18T13:34:22.530Z,25.00
2017-08-18T13:36:50.354Z,25.00
2017-08-18T13:39:18.075Z,24.70
2017-08-18T13:41:45.834Z,24.50
2017-08-18T13:44:14.320Z,24.40
2017-08-18T13:46:42.974Z,25.60
2017-08-18T13:49:10.695Z,25.50
2017-08-18T13:51:38.497Z,24.60
2017-08-18T13:54:06.242Z,24.80
2017-08-18T13:56:33.986Z,25.00
2017-08-18T13:59:01.761Z,25.00
2017-08-18T14:01:29.543Z,24.80
2017-08-18T14:03:57.310Z,24.90
2017-08-18T14:06:25.168Z,24.30
2017-08-18T14:08:52.890Z,24.60
2017-08-18T14:11:20.662Z,24.50
2017-08-18T14:13:48.383Z,23.70
2017-08-18T14:16:16.107Z,24.20
2017-08-18T14:18:43.868Z,24.30
2017-08-18T14:21:11.597Z,24.80
2017-08-18T14:23:39.379Z,24.60
2017-08-18T14:26:12.683Z,24.60
2017-08-18T14:28:40.466Z,25.20
2017-08-18T14:31:09.029Z,25.20
2017-08-18T14:33:36.896Z,25.10
2017-08-18T14:36:04.649Z,24.80
2017-08-18T14:38:32.386Z,25.00
2017-08-18T14:41:00.192Z,24.50
2017-08-18T14:43:27.915Z,25.30
2017-08-18T14:45:55.643Z,25.00
2017-08-18T14:48:23.461Z,25.60
2017-08-18T14:50:51.186Z,25.90
2017-08-18T14:53:18.962Z,25.70
2017-08-18T14:55:46.691Z,26.10
2017-08-18T14:58:14.511Z,25.40
2017-08-18T15:00:42.374Z,24.80
2017-08-18T15:03:10.155Z,25.40
2017-08-18T15:05:37.930Z,25.80
2017-08-18T15:08:05.657Z,25.50
2017-08-18T15:10:33.386Z,26.40
2017-08-18T15:13:01.147Z,26.10
2017-08-18T15:15:28.871Z,26.60
2017-08-18T15:17:58.442Z,27.20
2017-08-18T15:20:26.307Z,27.10
2017-08-18T15:22:54.055Z,27.40
2017-08-18T15:25:21.932Z,27.50
2017-08-18T15:27:49.655Z,27.80
2017-08-18T15:30:17.557Z,28.20
2017-08-18T15:32:45.287Z,28.70
2017-08-18T15:35:13.082Z,29.30
2017-08-18T15:37:42.077Z,28.40
2017-08-18T15:40:10.253Z,29.20
2017-08-18T15:42:39.028Z,29.60
2017-08-18T15:45:07.711Z,29.80
2017-08-18T15:47:35.574Z,29.80
2017-08-18T15:50:03.442Z,30.20
2017-08-18T15:52:31.302Z,30.10
2017-08-18T15:54:59.169Z,29.80
2017-08-18T15:57:27.751Z,30.10
2017-08-18T15:59:56.288Z,30.30
2017-08-18T16:02:24.125Z,30.30
2017-08-18T16:04:51.951Z,30.30
2017-08-18T16:07:22.072Z,30.40
2017-08-18T16:09:50.649Z,30.00
2017-08-18T16:12:18.512Z,30.00
2017-08-18T16:14:46.314Z,30.30
2017-08-18T16:17:14.137Z,30.40
2017-08-18T16:19:42.001Z,30.70
2017-08-18T16:22:10.549Z,30.90
2017-08-18T16:24:38.307Z,31.20
2017-08-18T16:27:06.208Z,31.60
2017-08-18T16:29:34.071Z,31.20
2017-08-18T16:32:01.935Z,31.60
2017-08-18T16:34:29.797Z,31.90
2017-08-18T16:36:57.766Z,32.10
2017-08-18T16:39:25.939Z,30.70
2017-08-18T16:41:54.517Z,31.90
2017-08-18T16:44:22.332Z,31.90
2017-08-18T16:46:50.143Z,31.00
2017-08-18T16:49:19.034Z,32.10
2017-08-18T16:51:47.816Z,32.50
2017-08-18T16:54:15.782Z,32.50
2017-08-18T16:56:43.646Z,33.00
2017-08-18T16:59:11.919Z,33.40
2017-08-18T17:01:39.785Z,33.60
2017-08-18T17:04:07.760Z,33.60
2017-08-18T17:06:36.536Z,34.30
2017-08-18T17:09:04.502Z,34.20
2017-08-18T17:11:32.376Z,33.40
2017-08-18T17:14:00.236Z,34.50
2017-08-18T17:16:28.091Z,34.90
2017-08-18T17:18:55.816Z,35.20
2017-08-18T17:21:23.586Z,35.50
2017-08-18T17:23:51.307Z,35.40
2017-08-18T17:26:19.798Z,36.10
2017-08-18T17:28:47.543Z,36.10
2017-08-18T17:31:16.037Z,36.80
2017-08-18T17:33:43.959Z,36.80
2017-08-18T17:36:11.823Z,37.30
2017-08-18T17:38:39.688Z,38.10
2017-08-18T17:41:07.548Z,38.60
2017-08-18T17:43:36.421Z,39.00
2017-08-18T17:46:04.404Z,39.60
2017-08-18T17:48:32.375Z,40.50
2017-08-18T17:51:02.179Z,41.20
2017-08-18T17:53:30.060Z,41.50
2017-08-18T17:55:59.957Z,43.10
2017-08-18T17:58:29.686Z,43.10
2017-08-18T18:00:58.562Z,44.70
2017-08-18T18:03:26.415Z,44.70
2017-08-18T18:05:54.242Z,45.60
2017-08-18T18:08:22.038Z,46.30
2017-08-18T18:10:56.865Z,47.40
2017-08-18T18:13:26.399Z,48.50
2017-08-18T18:15:54.950Z,51.50
2017-08-18T18:18:24.120Z,51.30
2017-08-18T18:20:52.007Z,52.50
2017-08-18T18:23:19.874Z,53.60
2017-08-18T18:25:47.736Z,54.10
2017-08-18T18:28:15.601Z,54.90
2017-08-18T18:30:43.473Z,55.50
2017-08-18T18:33:11.328Z,55.90
2017-08-18T18:35:39.190Z,56.60
2017-08-18T18:38:07.006Z,56.70
2017-08-18T18:40:34.822Z,57.10
2017-08-18T18:43:02.684Z,58.00
2017-08-18T18:45:30.544Z,58.20
2017-08-18T18:47:58.408Z,58.70
2017-08-18T18:50:26.237Z,58.90
2017-08-18T18:52:54.033Z,58.50
2017-08-18T18:55:22.714Z,56.80
2017-08-18T18:57:50.784Z,56.20
2017-08-18T19:00:18.755Z,56.50
2017-08-18T19:02:47.025Z,56.20
2017-08-18T19:05:14.790Z,56.20
2017-08-18T19:07:42.651Z,56.40
2017-08-18T19:10:10.822Z,55.70
2017-08-18T19:12:41.356Z,55.60
2017-08-18T19:15:09.212Z,55.60
2017-08-18T19:17:37.074Z,55.70
2017-08-18T19:20:04.938Z,56.60
2017-08-18T19:22:32.802Z,57.00
2017-08-18T19:25:00.676Z,57.60
2017-08-18T19:27:28.529Z,57.70
2017-08-18T19:29:56.395Z,59.00
2017-08-18T19:32:24.262Z,59.90
2017-08-18T19:34:52.128Z,61.00
2017-08-18T19:37:19.985Z,61.90
2017-08-18T19:39:47.953Z,63.00
2017-08-18T19:42:15.817Z,63.90
2017-08-18T19:44:43.679Z,64.50
2017-08-18T19:47:12.579Z,65.60
2017-08-18T19:49:40.443Z,65.50
2017-08-18T19:52:08.405Z,66.30
2017-08-18T19:54:36.671Z,66.60
2017-08-18T19:57:04.640Z,67.30
2017-08-18T19:59:33.115Z,67.80
2017-08-18T20:02:00.953Z,68.20
2017-08-18T20:04:28.845Z,68.40
2017-08-18T20:06:56.702Z,68.60
2017-08-18T20:09:24.571Z,69.40
2017-08-18T20:11:52.331Z,67.80
2017-08-18T20:14:20.154Z,67.50
2017-08-18T20:16:47.977Z,68.40
2017-08-18T20:19:15.819Z,68.50
2017-08-18T20:21:43.685Z,69.00
2017-08-18T20:24:11.549Z,68.70
2017-08-18T20:26:39.343Z,68.80
2017-08-18T20:29:07.831Z,68.90
2017-08-18T20:31:36.342Z,69.50
2017-08-18T20:34:04.103Z,69.50
2017-08-18T20:36:31.826Z,69.70
2017-08-18T20:39:00.455Z,70.10
2017-08-18T20:41:28.200Z,70.10
2017-08-18T20:43:55.923Z,70.70
2017-08-18T20:46:24.575Z,70.90
2017-08-18T20:48:52.440Z,70.80
2017-08-18T20:51:20.302Z,71.10
2017-08-18T20:53:48.131Z,71.20
2017-08-18T20:56:15.927Z,70.90
2017-08-18T20:58:43.793Z,71.30
2017-08-18T21:01:11.520Z,71.00
2017-08-18T21:03:39.311Z,71.70
2017-08-18T21:06:07.076Z,71.90
2017-08-18T21:08:34.941Z,72.80
2017-08-18T21:11:02.806Z,74.10
2017-08-18T21:13:30.539Z,75.00
2017-08-18T21:15:58.325Z,75.50
2017-08-18T21:18:26.056Z,75.90
2017-08-18T21:20:53.779Z,74.40
2017-08-18T21:23:22.295Z,73.20
2017-08-18T21:25:50.020Z,73.30
2017-08-18T21:28:18.670Z,71.60
2017-08-18T21:30:46.536Z,71.60
2017-08-18T21:33:14.258Z,72.00
2017-08-18T21:35:42.122Z,72.10
2017-08-18T21:38:09.921Z,72.80
2017-08-18T21:40:37.709Z,72.70
2017-08-18T21:43:06.262Z,73.20
2017-08-18T21:45:34.129Z,73.10
2017-08-18T21:48:01.991Z,73.80
2017-08-18T21:50:29.855Z,74.20
2017-08-18T21:52:57.719Z,75.10
2017-08-18T21:55:25.479Z,75.50
2017-08-18T21:57:53.298Z,75.90
2017-08-18T22:00:21.105Z,75.80
2017-08-18T22:02:48.835Z,76.60
2017-08-18T22:05:16.611Z,76.80
2017-08-18T22:07:44.492Z,76.40
2017-08-18T22:10:12.366Z,76.30
2017-08-18T22:12:40.119Z,76.00
2017-08-18T22:15:07.843Z,75.60
2017-08-18T22:17:35.742Z,75.50
2017-08-18T22:20:03.466Z,74.80
2017-08-18T22:22:31.186Z,74.40
2017-08-18T22:24:58.943Z,73.90
2017-08-18T22:27:26.686Z,73.90
2017-08-18T22:29:54.468Z,73.70
2017-08-18T22:32:22.186Z,73.70
2017-08-18T22:34:49.911Z,74.10
2017-08-18T22:37:18.550Z,74.70
2017-08-18T22:39:46.275Z,74.60
2017-08-18T22:42:14.054Z,74.70
2017-08-18T22:44:41.779Z,75.20
2017-08-18T22:47:09.603Z,76.00
2017-08-18T22:49:37.463Z,76.50
2017-08-18T22:52:05.324Z,76.70
2017-08-18T22:54:33.188Z,77.40
2017-08-18T22:57:00.911Z,77.80
2017-08-18T22:59:28.711Z,77.70
2017-08-18T23:01:56.473Z,78.50
2017-08-18T23:04:24.235Z,79.30
2017-08-18T23:06:52.062Z,79.60
2017-08-18T23:09:19.865Z,80.30
2017-08-18T23:11:47.602Z,79.70
2017-08-18T23:14:15.351Z,80.20
2017-08-18T23:16:43.124Z,80.50
2017-08-18T23:19:11.007Z,81.80
2017-08-18T23:21:38.730Z,83.00
2017-08-18T23:24:06.531Z,84.30
2017-08-18T23:26:34.394Z,85.90
2017-08-18T23:29:02.258Z,87.00
2017-08-18T23:31:30.085Z,87.30
2017-08-18T23:33:57.803Z,87.30
2017-08-18T23:36:25.526Z,87.40
2017-08-18T23:38:53.411Z,87.30
2017-08-18T23:41:21.271Z,86.70
2017-08-18T23:43:49.135Z,87.00
2017-08-18T23:46:16.858Z,87.10
2017-08-18T23:48:44.661Z,87.00
2017-08-18T23:51:12.419Z,87.00
2017-08-18T23:53:40.282Z,87.10
2017-08-18T23:56:08.107Z,87.80
2017-08-18T23:58:35.827Z,88.20
